Skip Navigation Links Skip Navigation Links

Current Weather

Illinois Valley Rgnl-Walter A Duncan Field, Peru, Ill.

For information only: do not use for flight planning or navigation.
Latest weather
Observation time Friday, December 3, 2021 3:35 AM CST
Local time Friday, December 3, 2021 4:01 AM CST
Flight conditions Visual Meteorological Conditions
Winds
Wind direction East-Northeast (70°)
Wind speed 7 mph
Visibility 10 mi.
Sky condition
Ceiling unlimited
Sky clear
Temperature 37°F
Dewpoint 30°F
Altimeter 30.01 in.Hg
Derived measurements
Relative humidity 75%
Wind chill 32°F
Density altitude -844 ft.
Remarks
Fully automated report.
Automated weather observing station with precipitation discriminator.
METAR KVYS 030935Z AUTO 07006KT 10SM CLR 03/M01 A3001 RMK AO2 T00281012

Settings

Location code

InnerDrive.Weather 4.0.6770.0 Release CLR 4.0.30319.42000
Copyright ©2018 Inner Drive Technology. All rights reserved. Portions Copyright ©1986-2018 David Braverman.

Find weather

Site navigation


Skip Navigation Links

Place info

Page info

PayPal - The safer, easier way to pay online!

Return home.

Copyright ©2021 Inner Drive Technology. Purveyors of fine, hand-crafted computer software. Page printed 2021-12-03T10:01:07 UTC.